Time;durP1;ratioP1;P1;durP2;ratioP2;P2;SDS_P1;SDS_P2;PMS_P1;PMS_P2;Temp;Humidity;BMP_temperature;BMP_pressure;BME280_temperature;BME280_humidity;BME280_pressure;Samples;Min_cycle;Max_cycle;Signal;HPM_P1;HPM_P2
2024/01/09 00:01:45;;;;;;;;;;;;;;;;;;5036498;28;907;-75
2024/01/09 00:04:10;;;;;;;;;;;;;;;;;;5036552;28;907;-75
2024/01/09 00:06:36;;;;;;;;;;;;;;;;;;5034732;28;1173;-75
2024/01/09 00:09:02;;;;;;;;;;;;;;;;;;5036399;28;910;-74
2024/01/09 00:11:28;;;;;;;;;;;;;;;;;;5034968;28;1204;-74
2024/01/09 00:13:53;;;;;;;;;;;;;;;;;;5036322;28;1077;-75
2024/01/09 00:16:18;;;;;;;;;;;;;;;;;;5036834;28;1097;-75
2024/01/09 00:18:43;;;;;;;;;;;;;;;;;;5036048;28;1955;-74
2024/01/09 00:21:08;;;;;;;;;;;;;;;;;;5036433;28;836;-73
2024/01/09 00:23:34;;;;;;;;;;;;;;;;;;5036292;28;974;-73
2024/01/09 00:26:00;;;;;;;;;;;;;;;;;;5036957;28;947;-74
2024/01/09 00:28:25;;;;;;;;;;;;;;;;;;5038321;28;994;-74
2024/01/09 00:30:50;;;;;;;;;;;;;;;;;;5036890;28;884;-74
2024/01/09 00:33:15;;;;;;;;;;;;;;;;;;5037240;28;930;-74
2024/01/09 00:35:41;;;;;;;;;;;;;;;;;;5035935;28;781;-74
2024/01/09 00:38:06;;;;;;;;;;;;;;;;;;5039334;28;1890;-80
2024/01/09 00:40:31;;;;;;;;;;;;;;;;;;5039463;28;875;-79
2024/01/09 00:42:56;;;;;;;;;;;;;;;;;;5038652;28;848;-79
2024/01/09 00:45:21;;;;;;;;;;;;;;;;;;5037448;28;1297;-78
2024/01/09 00:47:47;;;;;;;;;;;;;;;;;;5039126;28;762;-79
2024/01/09 00:50:12;;;;;;;;;;;;;;;;;;5038747;28;947;-80
2024/01/09 00:52:38;;;;;;;;;;;;;;;;;;5038503;28;840;-80
2024/01/09 00:55:03;;;;;;;;;;;;;;;;;;5053428;28;1175;-80
2024/01/09 00:57:28;;;;;;;;;;;;;;;;;;5054772;28;1907;-81
2024/01/09 00:59:54;;;;;;;;;;;;;;;;;;5037515;28;1379;-79
2024/01/09 01:02:19;;;;;;;;;;;;;;;;;;5055185;28;1234;-79
2024/01/09 01:04:44;;;;;;;;;;;;;;;;;;5039516;28;900;-80
2024/01/09 01:07:09;;;;;;;;;;;;;;;;;;5038219;28;853;-79
2024/01/09 01:09:35;;;;;;;;;;;;;;;;;;5035731;28;1030;-79
2024/01/09 01:12:00;;;;;;;;;;;;;;;;;;5035780;28;884;-78
2024/01/09 01:14:25;;;;;;;;;;;;;;;;;;5035272;28;990;-79
2024/01/09 01:16:51;;;;;;;;;;;;;;;;;;5035569;28;1906;-79
2024/01/09 01:19:16;;;;;;;;;;;;;;;;;;5050380;28;1170;-80
2024/01/09 01:21:41;;;;;;;;;;;;;;;;;;5035639;28;978;-79
2024/01/09 01:24:07;;;;;;;;;;;;;;;;;;5050937;28;1254;-79
2024/01/09 01:26:33;;;;;;;;;;;;;;;;;;5050599;28;1139;-80
2024/01/09 01:28:58;;;;;;;;;;;;;;;;;;5035167;28;825;-80
2024/01/09 01:31:23;;;;;;;;;;;;;;;;;;5035215;28;1208;-78
2024/01/09 01:33:48;;;;;;;;;;;;;;;;;;5034840;28;940;-79
2024/01/09 01:36:14;;;;;;;;;;;;;;;;;;5035872;28;833;-79
2024/01/09 01:38:40;;;;;;;;;;;;;;;;;;5033935;28;1886;-79
2024/01/09 01:41:05;;;;;;;;;;;;;;;;;;5035748;28;936;-80
2024/01/09 01:43:30;;;;;;;;;;;;;;;;;;5035338;28;1054;-80
2024/01/09 01:45:56;;;;;;;;;;;;;;;;;;5035292;28;849;-79
2024/01/09 01:48:21;;;;;;;;;;;;;;;;;;5035612;28;840;-79
2024/01/09 01:50:47;;;;;;;;;;;;;;;;;;5035027;28;936;-79
2024/01/09 01:53:12;;;;;;;;;;;;;;;;;;5035442;28;1030;-80
2024/01/09 01:55:37;;;;;;;;;;;;;;;;;;5034616;28;1024;-79
2024/01/09 01:58:04;;;;;;;;;;;;;;;;;;5034812;28;1906;-79
2024/01/09 02:00:30;;;;;;;;;;;;;;;;;;5033709;28;1174;-80
2024/01/09 02:02:55;;;;;;;;;;;;;;;;;;5034991;28;923;-79
2024/01/09 02:05:22;;;;;;;;;;;;;;;;;;5050264;28;1286;-80
2024/01/09 02:07:50;;;;;;;;;;;;;;;;;;5034647;28;860;-80
2024/01/09 02:10:15;;;;;;;;;;;;;;;;;;5032824;28;1171;-79
2024/01/09 02:12:41;;;;;;;;;;;;;;;;;;5034751;28;939;-80
2024/01/09 02:15:07;;;;;;;;;;;;;;;;;;5034966;28;999;-80
2024/01/09 02:17:32;;;;;;;;;;;;;;;;;;5034884;28;1969;-79
2024/01/09 02:20:01;;;;;;;;;;;;;;;;;;5034869;28;828;-80
2024/01/09 02:22:26;;;;;;;;;;;;;;;;;;5033511;28;1217;-80
2024/01/09 02:24:51;;;;;;;;;;;;;;;;;;5034678;28;891;-80
2024/01/09 02:27:30;;;;;;;;;;;;;;;;;;5034555;28;970;-80
2024/01/09 02:29:55;;;;;;;;;;;;;;;;;;5033106;28;1152;-80
2024/01/09 02:32:21;;;;;;;;;;;;;;;;;;5034656;28;836;-79
2024/01/09 02:34:46;;;;;;;;;;;;;;;;;;5032476;28;1305;-79
2024/01/09 02:37:12;;;;;;;;;;;;;;;;;;5033984;28;1903;-80
2024/01/09 02:39:37;;;;;;;;;;;;;;;;;;5032461;28;1269;-80
2024/01/09 02:42:03;;;;;;;;;;;;;;;;;;5033241;28;1230;-79
2024/01/09 02:44:28;;;;;;;;;;;;;;;;;;5035433;28;1003;-80
2024/01/09 02:46:53;;;;;;;;;;;;;;;;;;5037578;28;1250;-79
2024/01/09 02:49:18;;;;;;;;;;;;;;;;;;5036860;28;1163;-80
2024/01/09 02:51:44;;;;;;;;;;;;;;;;;;5038632;28;955;-79
2024/01/09 02:54:09;;;;;;;;;;;;;;;;;;5038093;28;1260;-79
2024/01/09 02:56:36;;;;;;;;;;;;;;;;;;5017044;28;1973;-80
2024/01/09 02:59:02;;;;;;;;;;;;;;;;;;5034438;28;1157;-78
2024/01/09 03:01:27;;;;;;;;;;;;;;;;;;5034643;28;1233;-79
2024/01/09 03:03:52;;;;;;;;;;;;;;;;;;5036791;28;1225;-80
2024/01/09 03:06:18;;;;;;;;;;;;;;;;;;5019757;28;1157;-80
2024/01/09 03:08:43;;;;;;;;;;;;;;;;;;5038546;28;970;-79
2024/01/09 03:11:08;;;;;;;;;;;;;;;;;;5036743;28;1211;-79
2024/01/09 03:13:34;;;;;;;;;;;;;;;;;;5036950;28;1050;-79
2024/01/09 03:15:59;;;;;;;;;;;;;;;;;;5037696;28;833;-79
2024/01/09 03:18:24;;;;;;;;;;;;;;;;;;5037853;28;1956;-78
2024/01/09 03:20:49;;;;;;;;;;;;;;;;;;5037677;28;1271;-80
2024/01/09 03:23:14;;;;;;;;;;;;;;;;;;5038124;28;1007;-79
2024/01/09 03:25:40;;;;;;;;;;;;;;;;;;5038481;28;931;-78
2024/01/09 03:28:05;;;;;;;;;;;;;;;;;;5038625;28;844;-78
2024/01/09 03:30:30;;;;;;;;;;;;;;;;;;5042257;28;1479;-79
2024/01/09 03:32:56;;;;;;;;;;;;;;;;;;5045186;28;856;-79
2024/01/09 03:35:21;;;;;;;;;;;;;;;;;;5037230;28;1252;-79
2024/01/09 03:37:46;;;;;;;;;;;;;;;;;;5026441;28;1965;-78
2024/01/09 03:40:12;;;;;;;;;;;;;;;;;;5042369;28;1159;-79
2024/01/09 03:42:37;;;;;;;;;;;;;;;;;;5042058;28;1446;-79
2024/01/09 03:45:02;;;;;;;;;;;;;;;;;;5039071;28;1161;-79
2024/01/09 03:47:28;;;;;;;;;;;;;;;;;;5037995;28;1141;-79
2024/01/09 03:49:53;;;;;;;;;;;;;;;;;;5037326;28;947;-79
2024/01/09 03:52:18;;;;;;;;;;;;;;;;;;5037335;28;918;-79
2024/01/09 03:54:43;;;;;;;;;;;;;;;;;;5037142;28;1131;-79
2024/01/09 03:57:10;;;;;;;;;;;;;;;;;;5036134;28;1963;-80
2024/01/09 03:59:35;;;;;;;;;;;;;;;;;;5018783;28;1254;-79
2024/01/09 04:02:01;;;;;;;;;;;;;;;;;;5037206;28;820;-81
2024/01/09 04:04:27;;;;;;;;;;;;;;;;;;5036835;28;828;-80
2024/01/09 04:06:52;;;;;;;;;;;;;;;;;;5037184;28;950;-79
2024/01/09 04:09:17;;;;;;;;;;;;;;;;;;5019321;28;1176;-80
2024/01/09 04:11:46;;;;;;;;;;;;;;;;;;5037052;28;836;-80
2024/01/09 04:14:11;;;;;;;;;;;;;;;;;;5035497;28;1184;-80
2024/01/09 04:16:37;;;;;;;;;;;;;;;;;;5036372;28;1957;-80
2024/01/09 04:19:02;;;;;;;;;;;;;;;;;;5036472;28;979;-79
2024/01/09 04:21:27;;;;;;;;;;;;;;;;;;5036456;28;844;-80
2024/01/09 04:23:52;;;;;;;;;;;;;;;;;;5035306;28;1190;-81
2024/01/09 04:26:17;;;;;;;;;;;;;;;;;;5036673;28;979;-80
2024/01/09 04:28:43;;;;;;;;;;;;;;;;;;5036128;28;927;-80
2024/01/09 04:31:08;;;;;;;;;;;;;;;;;;5018469;28;1248;-79
2024/01/09 04:33:34;;;;;;;;;;;;;;;;;;5018788;28;1362;-80
2024/01/09 04:35:59;;;;;;;;;;;;;;;;;;5018403;28;1146;-80
2024/01/09 04:38:24;;;;;;;;;;;;;;;;;;5036077;28;1966;-81
2024/01/09 04:40:50;;;;;;;;;;;;;;;;;;5036699;28;923;-80
2024/01/09 04:43:15;;;;;;;;;;;;;;;;;;5036523;28;892;-78
2024/01/09 04:45:40;;;;;;;;;;;;;;;;;;5036380;28;995;-80
2024/01/09 04:48:06;;;;;;;;;;;;;;;;;;5018372;28;1165;-80
2024/01/09 04:50:31;;;;;;;;;;;;;;;;;;5034847;28;1152;-80
2024/01/09 04:52:56;;;;;;;;;;;;;;;;;;5035714;28;967;-80
2024/01/09 04:55:21;;;;;;;;;;;;;;;;;;5036308;28;936;-75
2024/01/09 04:57:47;;;;;;;;;;;;;;;;;;5035515;28;1906;-75
2024/01/09 05:00:12;;;;;;;;;;;;;;;;;;5035188;28;1002;-75
2024/01/09 05:02:38;;;;;;;;;;;;;;;;;;5035081;28;1259;-75
2024/01/09 05:05:04;;;;;;;;;;;;;;;;;;5033858;28;1023;-74
2024/01/09 05:07:29;;;;;;;;;;;;;;;;;;5016849;28;1660;-75
2024/01/09 05:09:55;;;;;;;;;;;;;;;;;;5017146;28;1424;-74
2024/01/09 05:12:20;;;;;;;;;;;;;;;;;;5034755;28;837;-74
2024/01/09 05:14:46;;;;;;;;;;;;;;;;;;5017107;28;1208;-75
2024/01/09 05:17:11;;;;;;;;;;;;;;;;;;5016958;28;1978;-74
2024/01/09 05:19:36;;;;;;;;;;;;;;;;;;5036150;28;860;-80
2024/01/09 05:22:01;;;;;;;;;;;;;;;;;;5034889;28;895;-79
2024/01/09 05:24:27;;;;;;;;;;;;;;;;;;5034794;28;1299;-79
2024/01/09 05:26:52;;;;;;;;;;;;;;;;;;5034479;28;1189;-78
2024/01/09 05:29:17;;;;;;;;;;;;;;;;;;5035508;28;857;-78
2024/01/09 05:31:43;;;;;;;;;;;;;;;;;;5033853;28;1260;-79
2024/01/09 05:34:09;;;;;;;;;;;;;;;;;;5035209;28;868;-79
2024/01/09 05:36:34;;;;;;;;;;;;;;;;;;5017354;28;1295;-79
2024/01/09 05:38:59;;;;;;;;;;;;;;;;;;5016593;28;1993;-79
2024/01/09 05:41:24;;;;;;;;;;;;;;;;;;5033667;28;1285;-78
2024/01/09 05:43:49;;;;;;;;;;;;;;;;;;5035084;28;851;-78
2024/01/09 05:46:15;;;;;;;;;;;;;;;;;;5035148;28;876;-78
2024/01/09 05:48:40;;;;;;;;;;;;;;;;;;5033301;28;1469;-79
2024/01/09 05:51:06;;;;;;;;;;;;;;;;;;5034361;28;793;-79
2024/01/09 05:53:31;;;;;;;;;;;;;;;;;;5034814;28;1041;-79
2024/01/09 05:55:56;;;;;;;;;;;;;;;;;;5033329;28;1311;-79
2024/01/09 05:58:22;;;;;;;;;;;;;;;;;;5034957;28;1983;-79
2024/01/09 06:00:47;;;;;;;;;;;;;;;;;;5034347;28;1030;-80
2024/01/09 06:03:12;;;;;;;;;;;;;;;;;;5017204;28;1350;-80
2024/01/09 06:05:38;;;;;;;;;;;;;;;;;;5033010;28;1204;-81
2024/01/09 06:08:03;;;;;;;;;;;;;;;;;;5035135;28;841;-79
2024/01/09 06:10:28;;;;;;;;;;;;;;;;;;5016874;28;1180;-80
2024/01/09 06:12:54;;;;;;;;;;;;;;;;;;5035343;28;784;-80
2024/01/09 06:15:19;;;;;;;;;;;;;;;;;;5017188;28;1397;-81
2024/01/09 06:17:44;;;;;;;;;;;;;;;;;;5034895;28;1971;-80
2024/01/09 06:20:10;;;;;;;;;;;;;;;;;;5034183;28;895;-78
2024/01/09 06:22:35;;;;;;;;;;;;;;;;;;5035157;28;1244;-79
2024/01/09 06:25:01;;;;;;;;;;;;;;;;;;5017368;28;1138;-80
2024/01/09 06:27:26;;;;;;;;;;;;;;;;;;5034699;28;845;-80
2024/01/09 06:29:51;;;;;;;;;;;;;;;;;;5016887;28;1281;-80
2024/01/09 06:32:16;;;;;;;;;;;;;;;;;;5034382;28;892;-80
2024/01/09 06:34:42;;;;;;;;;;;;;;;;;;5033482;28;1150;-80
2024/01/09 06:37:07;;;;;;;;;;;;;;;;;;5034452;28;1901;-80
2024/01/09 06:39:32;;;;;;;;;;;;;;;;;;5034827;28;856;-80
2024/01/09 06:41:57;;;;;;;;;;;;;;;;;;5037687;28;1386;-80
2024/01/09 06:44:23;;;;;;;;;;;;;;;;;;5029049;28;1181;-80
2024/01/09 06:46:48;;;;;;;;;;;;;;;;;;5038827;28;754;-79
2024/01/09 06:49:13;;;;;;;;;;;;;;;;;;5020445;28;1205;-79
2024/01/09 06:51:38;;;;;;;;;;;;;;;;;;5030260;28;1235;-79
2024/01/09 06:54:04;;;;;;;;;;;;;;;;;;5029055;28;1220;-79
2024/01/09 06:56:30;;;;;;;;;;;;;;;;;;5021120;28;1133;-79
2024/01/09 06:58:55;;;;;;;;;;;;;;;;;;5033543;28;1916;-79
2024/01/09 07:01:20;;;;;;;;;;;;;;;;;;5016920;28;1251;-80
2024/01/09 07:03:45;;;;;;;;;;;;;;;;;;5034184;28;836;-79
2024/01/09 07:06:11;;;;;;;;;;;;;;;;;;5033825;28;892;-79
2024/01/09 07:08:36;;;;;;;;;;;;;;;;;;5032838;28;1074;-74
2024/01/09 07:11:01;;;;;;;;;;;;;;;;;;5015219;28;1296;-74
2024/01/09 07:13:27;;;;;;;;;;;;;;;;;;5015150;28;916;-74
2024/01/09 07:15:52;;;;;;;;;;;;;;;;;;5032722;28;844;-75
2024/01/09 07:18:17;;;;;;;;;;;;;;;;;;5014883;28;1903;-75
2024/01/09 07:20:43;;;;;;;;;;;;;;;;;;5014990;28;1236;-73
2024/01/09 07:23:08;;;;;;;;;;;;;;;;;;5014832;28;1196;-74
2024/01/09 07:25:34;;;;;;;;;;;;;;;;;;5033128;28;923;-81
2024/01/09 07:27:59;;;;;;;;;;;;;;;;;;5032493;28;1399;-81
2024/01/09 07:30:24;;;;;;;;;;;;;;;;;;5034368;28;924;-80
2024/01/09 07:32:49;;;;;;;;;;;;;;;;;;5035687;28;883;-81
2024/01/09 07:35:15;;;;;;;;;;;;;;;;;;5036061;28;876;-80
2024/01/09 07:37:40;;;;;;;;;;;;;;;;;;5035438;28;1910;-80
2024/01/09 07:40:06;;;;;;;;;;;;;;;;;;5017438;28;1207;-81
2024/01/09 07:42:31;;;;;;;;;;;;;;;;;;5034353;28;1304;-81
2024/01/09 07:44:56;;;;;;;;;;;;;;;;;;5033975;28;1270;-81
2024/01/09 07:47:22;;;;;;;;;;;;;;;;;;5017919;28;1294;-81
2024/01/09 07:49:48;;;;;;;;;;;;;;;;;;5037039;28;1173;-81
2024/01/09 07:52:13;;;;;;;;;;;;;;;;;;5000815;28;1239;-80
2024/01/09 07:54:40;;;;;;;;;;;;;;;;;;5006435;28;1296;-83
2024/01/09 07:57:05;;;;;;;;;;;;;;;;;;5018932;28;1878;-77
2024/01/09 07:59:30;;;;;;;;;;;;;;;;;;5036789;28;906;-77
2024/01/09 08:01:56;;;;;;;;;;;;;;;;;;5052107;28;1254;-76
2024/01/09 08:04:22;;;;;;;;;;;;;;;;;;5018684;28;1438;-76
2024/01/09 08:06:49;;;;;;;;;;;;;;;;;;5018628;28;1083;-76
2024/01/09 08:09:15;;;;;;;;;;;;;;;;;;5036775;28;860;-76
2024/01/09 08:11:41;;;;;;;;;;;;;;;;;;5036571;28;888;-75
2024/01/09 08:14:06;;;;;;;;;;;;;;;;;;5051821;28;1266;-76
2024/01/09 08:16:31;;;;;;;;;;;;;;;;;;5036219;28;753;-75
2024/01/09 08:18:56;;;;;;;;;;;;;;;;;;5035173;28;2342;-75
2024/01/09 08:21:22;;;;;;;;;;;;;;;;;;5036618;28;951;-77
2024/01/09 08:23:47;;;;;;;;;;;;;;;;;;5018700;28;1230;-76
2024/01/09 08:26:13;;;;;;;;;;;;;;;;;;5036276;28;848;-76
2024/01/09 08:28:38;;;;;;;;;;;;;;;;;;5051489;28;1153;-76
2024/01/09 08:31:03;;;;;;;;;;;;;;;;;;5036163;28;1203;-78
2024/01/09 08:33:31;;;;;;;;;;;;;;;;;;5037165;28;879;-79
2024/01/09 08:35:57;;;;;;;;;;;;;;;;;;5036329;28;860;-78
2024/01/09 08:38:22;;;;;;;;;;;;;;;;;;5036214;28;1971;-79
2024/01/09 08:40:52;;;;;;;;;;;;;;;;;;5036371;28;980;-79
2024/01/09 08:43:17;;;;;;;;;;;;;;;;;;5035767;28;836;-79
2024/01/09 08:45:43;;;;;;;;;;;;;;;;;;5035989;28;887;-79
2024/01/09 08:48:08;;;;;;;;;;;;;;;;;;5036073;28;888;-79
2024/01/09 08:50:34;;;;;;;;;;;;;;;;;;5036302;28;999;-79
2024/01/09 08:52:59;;;;;;;;;;;;;;;;;;5036193;28;1218;-79
2024/01/09 08:55:24;;;;;;;;;;;;;;;;;;5011784;28;1201;-79
2024/01/09 08:57:49;;;;;;;;;;;;;;;;;;4996631;28;1902;-79
2024/01/09 09:00:15;;;;;;;;;;;;;;;;;;5032137;28;1190;-78
2024/01/09 09:02:40;;;;;;;;;;;;;;;;;;5037722;28;1189;-79
2024/01/09 09:05:06;;;;;;;;;;;;;;;;;;5032273;28;1161;-79
2024/01/09 09:07:31;;;;;;;;;;;;;;;;;;5033286;28;1189;-78
2024/01/09 09:09:57;;;;;;;;;;;;;;;;;;5017631;28;1314;-79
2024/01/09 09:12:22;;;;;;;;;;;;;;;;;;5035421;28;916;-79
2024/01/09 09:14:48;;;;;;;;;;;;;;;;;;5035941;28;938;-79
2024/01/09 09:17:14;;;;;;;;;;;;;;;;;;5017400;28;1898;-78
2024/01/09 09:19:39;;;;;;;;;;;;;;;;;;5034943;28;868;-79
2024/01/09 09:22:04;;;;;;;;;;;;;;;;;;5035265;28;844;-79
2024/01/09 09:24:30;;;;;;;;;;;;;;;;;;5017354;28;1162;-79
2024/01/09 09:26:55;;;;;;;;;;;;;;;;;;5035562;28;832;-79
2024/01/09 09:29:20;;;;;;;;;;;;;;;;;;5018373;28;1330;-80
2024/01/09 09:31:48;;;;;;;;;;;;;;;;;;5035937;28;875;-78
2024/01/09 09:34:13;;;;;;;;;;;;;;;;;;5016899;28;1161;-80
2024/01/09 09:36:39;;;;;;;;;;;;;;;;;;5035471;28;836;-80
2024/01/09 09:39:04;;;;;;;;;;;;;;;;;;5035458;28;1890;-79
2024/01/09 09:41:31;;;;;;;;;;;;;;;;;;5035856;28;978;-79
2024/01/09 09:43:57;;;;;;;;;;;;;;;;;;5018315;28;1205;-79
2024/01/09 09:46:26;;;;;;;;;;;;;;;;;;5038588;28;809;-79
2024/01/09 09:48:53;;;;;;;;;;;;;;;;;;5020608;28;1256;-79
2024/01/09 09:51:19;;;;;;;;;;;;;;;;;;5019363;28;1286;-79
2024/01/09 09:53:45;;;;;;;;;;;;;;;;;;5019116;28;1174;-80
2024/01/09 09:56:12;;;;;;;;;;;;;;;;;;5022448;28;1348;-78
2024/01/09 09:58:38;;;;;;;;;;;;;;;;;;5043922;28;1902;-79
2024/01/09 10:01:03;;;;;;;;;;;;;;;;;;5029304;28;1189;-80
2024/01/09 10:03:33;;;;;;;;;;;;;;;;;;5022366;28;1107;-79
2024/01/09 10:06:02;;;;;;;;;;;;;;;;;;5044710;28;864;-78
2024/01/09 10:08:29;;;;;;;;;;;;;;;;;;5046479;28;1081;-76
2024/01/09 10:10:55;;;;;;;;;;;;;;;;;;5042751;28;898;-78
2024/01/09 10:13:22;;;;;;;;;;;;;;;;;;5018582;28;1209;-79
2024/01/09 10:15:57;;;;;;;;;;;;;;;;;;5035721;28;817;-79
2024/01/09 10:18:22;;;;;;;;;;;;;;;;;;5035126;28;1902;-77
2024/01/09 10:20:48;;;;;;;;;;;;;;;;;;5034246;28;896;-76
2024/01/09 10:23:14;;;;;;;;;;;;;;;;;;5016562;28;911;-74
2024/01/09 10:25:39;;;;;;;;;;;;;;;;;;5016106;28;1180;-75
2024/01/09 10:28:08;;;;;;;;;;;;;;;;;;5018198;28;1325;-74
2024/01/09 10:30:33;;;;;;;;;;;;;;;;;;5033682;28;867;-74
2024/01/09 10:32:58;;;;;;;;;;;;;;;;;;5016192;28;1311;-75
2024/01/09 10:35:25;;;;;;;;;;;;;;;;;;5017612;28;1212;-75
2024/01/09 10:37:52;;;;;;;;;;;;;;;;;;5017261;28;1961;-74
2024/01/09 10:40:24;;;;;;;;;;;;;;;;;;5042934;28;995;-84
2024/01/09 10:42:49;;;;;;;;;;;;;;;;;;5023304;28;1293;-83
2024/01/09 10:45:15;;;;;;;;;;;;;;;;;;5021768;28;1275;-84
2024/01/09 10:47:42;;;;;;;;;;;;;;;;;;5024048;28;1224;-84
2024/01/09 10:50:09;;;;;;;;;;;;;;;;;;5023403;28;1240;-83
2024/01/09 10:52:34;;;;;;;;;;;;;;;;;;5022602;28;1252;-83
2024/01/09 10:55:00;;;;;;;;;;;;;;;;;;5022427;28;1488;-84
2024/01/09 10:57:26;;;;;;;;;;;;;;;;;;5039193;28;1977;-84
2024/01/09 10:59:52;;;;;;;;;;;;;;;;;;5023379;28;1331;-83
2024/01/09 11:02:21;;;;;;;;;;;;;;;;;;5031341;28;1221;-82
2024/01/09 11:04:47;;;;;;;;;;;;;;;;;;5025004;28;1319;-82
2024/01/09 11:07:16;;;;;;;;;;;;;;;;;;5026840;28;1149;-81
2024/01/09 11:09:42;;;;;;;;;;;;;;;;;;5026792;28;1242;-82
2024/01/09 11:12:09;;;;;;;;;;;;;;;;;;5027248;28;1308;-82
2024/01/09 11:14:35;;;;;;;;;;;;;;;;;;5030082;28;1173;-82
2024/01/09 11:17:03;;;;;;;;;;;;;;;;;;5036184;28;1910;-82
2024/01/09 11:19:28;;;;;;;;;;;;;;;;;;5029122;28;1372;-83
2024/01/09 11:21:54;;;;;;;;;;;;;;;;;;5021594;28;1235;-82
2024/01/09 11:24:25;;;;;;;;;;;;;;;;;;5021206;28;1775;-82
2024/01/09 11:27:09;;;;;;;;;;;;;;;;;;5020462;28;1292;-82
2024/01/09 11:29:46;;;;;;;;;;;;;;;;;;5020083;28;1270;-82
2024/01/09 11:32:12;;;;;;;;;;;;;;;;;;5037704;28;1470;-81
2024/01/09 11:34:41;;;;;;;;;;;;;;;;;;5038606;28;955;-81
2024/01/09 11:37:26;;;;;;;;;;;;;;;;;;5039109;28;1902;-82
2024/01/09 11:39:52;;;;;;;;;;;;;;;;;;5037877;28;1534;-82
2024/01/09 11:42:17;;;;;;;;;;;;;;;;;;5038849;28;966;-82
2024/01/09 11:44:43;;;;;;;;;;;;;;;;;;5037522;28;986;-82
2024/01/09 11:47:08;;;;;;;;;;;;;;;;;;5019809;28;1197;-82
2024/01/09 11:49:36;;;;;;;;;;;;;;;;;;5019339;28;1454;-82
2024/01/09 11:52:02;;;;;;;;;;;;;;;;;;5037780;28;841;-82
2024/01/09 11:54:27;;;;;;;;;;;;;;;;;;5020162;28;1174;-81
2024/01/09 11:56:52;;;;;;;;;;;;;;;;;;5037954;28;864;-82
2024/01/09 11:59:18;;;;;;;;;;;;;;;;;;5037194;28;1922;-81
2024/01/09 12:01:44;;;;;;;;;;;;;;;;;;5019835;28;1185;-82
2024/01/09 12:04:11;;;;;;;;;;;;;;;;;;5019057;28;1227;-81
2024/01/09 12:06:36;;;;;;;;;;;;;;;;;;5019307;28;1205;-82
2024/01/09 12:09:02;;;;;;;;;;;;;;;;;;5019264;28;1302;-82
2024/01/09 12:11:27;;;;;;;;;;;;;;;;;;5037253;28;1002;-81
2024/01/09 12:13:59;;;;;;;;;;;;;;;;;;5019507;28;1209;-82
2024/01/09 12:16:25;;;;;;;;;;;;;;;;;;5018855;28;1215;-83
2024/01/09 12:18:52;;;;;;;;;;;;;;;;;;5019001;28;1977;-83
2024/01/09 12:21:18;;;;;;;;;;;;;;;;;;5019226;28;1431;-82
2024/01/09 12:23:45;;;;;;;;;;;;;;;;;;5019725;28;1344;-83
2024/01/09 12:26:10;;;;;;;;;;;;;;;;;;5036690;28;876;-85
2024/01/09 12:28:35;;;;;;;;;;;;;;;;;;5018681;28;1256;-82
2024/01/09 12:31:04;;;;;;;;;;;;;;;;;;5036480;28;972;-82
2024/01/09 12:33:29;;;;;;;;;;;;;;;;;;5019118;28;1633;-82
2024/01/09 12:35:55;;;;;;;;;;;;;;;;;;5018622;28;1190;-82
2024/01/09 12:38:22;;;;;;;;;;;;;;;;;;5036212;28;1906;-85
2024/01/09 12:40:56;;;;;;;;;;;;;;;;;;5035813;28;864;-75
2024/01/09 12:43:21;;;;;;;;;;;;;;;;;;5035180;28;987;-75
2024/01/09 12:45:46;;;;;;;;;;;;;;;;;;5017137;28;1160;-75
2024/01/09 12:48:12;;;;;;;;;;;;;;;;;;5034159;28;1003;-74
2024/01/09 12:50:37;;;;;;;;;;;;;;;;;;5016608;28;1509;-74
2024/01/09 12:53:03;;;;;;;;;;;;;;;;;;5017211;28;1430;-74
2024/01/09 12:55:29;;;;;;;;;;;;;;;;;;5034081;28;975;-74
2024/01/09 12:57:55;;;;;;;;;;;;;;;;;;5016442;28;1957;-74
2024/01/09 13:00:21;;;;;;;;;;;;;;;;;;5016996;28;1258;-73
2024/01/09 13:02:46;;;;;;;;;;;;;;;;;;5034732;28;621;-74
2024/01/09 13:05:13;;;;;;;;;;;;;;;;;;5034797;28;911;-74
2024/01/09 13:07:39;;;;;;;;;;;;;;;;;;5017749;28;1441;-73
2024/01/09 13:10:04;;;;;;;;;;;;;;;;;;5034913;28;947;-75
2024/01/09 13:12:29;;;;;;;;;;;;;;;;;;5034664;28;1180;-75
2024/01/09 13:14:55;;;;;;;;;;;;;;;;;;5035602;28;958;-75
2024/01/09 13:17:20;;;;;;;;;;;;;;;;;;5016913;28;1898;-74
2024/01/09 13:19:47;;;;;;;;;;;;;;;;;;5034787;28;872;-74
2024/01/09 13:22:12;;;;;;;;;;;;;;;;;;5016426;28;1172;-74
2024/01/09 13:24:37;;;;;;;;;;;;;;;;;;5034422;28;825;-73
2024/01/09 13:27:03;;;;;;;;;;;;;;;;;;5034067;28;1054;-73
2024/01/09 13:29:28;;;;;;;;;;;;;;;;;;5016201;28;1220;-73
2024/01/09 13:31:54;;;;;;;;;;;;;;;;;;5034247;28;808;-74
2024/01/09 13:34:19;;;;;;;;;;;;;;;;;;5034038;28;852;-73
2024/01/09 13:36:44;;;;;;;;;;;;;;;;;;5034230;28;1038;-73
2024/01/09 13:39:14;;;;;;;;;;;;;;;;;;5033679;28;1894;-74
2024/01/09 13:41:39;;;;;;;;;;;;;;;;;;5016593;28;1196;-74
2024/01/09 13:44:05;;;;;;;;;;;;;;;;;;5015952;28;1355;-73
2024/01/09 13:46:31;;;;;;;;;;;;;;;;;;5016068;28;1185;-74
2024/01/09 13:48:57;;;;;;;;;;;;;;;;;;5034145;28;952;-74
2024/01/09 13:51:23;;;;;;;;;;;;;;;;;;5033999;28;1054;-73
2024/01/09 13:53:51;;;;;;;;;;;;;;;;;;5016244;28;1189;-74
2024/01/09 13:56:16;;;;;;;;;;;;;;;;;;5033766;28;919;-74
2024/01/09 13:58:42;;;;;;;;;;;;;;;;;;5033583;28;1971;-75
2024/01/09 14:01:07;;;;;;;;;;;;;;;;;;5015296;28;1311;-73
2024/01/09 14:03:33;;;;;;;;;;;;;;;;;;5033076;28;864;-73
2024/01/09 14:05:58;;;;;;;;;;;;;;;;;;5033827;28;1050;-74
2024/01/09 14:08:23;;;;;;;;;;;;;;;;;;5015688;28;1148;-73
2024/01/09 14:10:48;;;;;;;;;;;;;;;;;;5033521;28;983;-74
2024/01/09 14:13:14;;;;;;;;;;;;;;;;;;5015701;28;1168;-74
2024/01/09 14:15:39;;;;;;;;;;;;;;;;;;5033767;28;790;-74
2024/01/09 14:18:05;;;;;;;;;;;;;;;;;;5015589;28;1906;-74
2024/01/09 14:20:30;;;;;;;;;;;;;;;;;;5015835;28;1289;-74
2024/01/09 14:22:55;;;;;;;;;;;;;;;;;;5033542;28;876;-75
2024/01/09 14:25:21;;;;;;;;;;;;;;;;;;5015601;28;1149;-74
2024/01/09 14:27:47;;;;;;;;;;;;;;;;;;5015089;28;1284;-73
2024/01/09 14:30:18;;;;;;;;;;;;;;;;;;5016046;28;1176;-82
2024/01/09 14:32:43;;;;;;;;;;;;;;;;;;5034433;28;852;-82
2024/01/09 14:35:08;;;;;;;;;;;;;;;;;;5034670;28;888;-83
2024/01/09 14:37:33;;;;;;;;;;;;;;;;;;5016514;28;1971;-82
2024/01/09 14:39:59;;;;;;;;;;;;;;;;;;5016896;28;1226;-83
2024/01/09 14:42:24;;;;;;;;;;;;;;;;;;5038045;28;840;-82
2024/01/09 14:44:54;;;;;;;;;;;;;;;;;;5020549;28;1192;-82
2024/01/09 14:47:21;;;;;;;;;;;;;;;;;;5037542;28;861;-74
2024/01/09 14:49:46;;;;;;;;;;;;;;;;;;5037045;28;880;-75
2024/01/09 14:52:11;;;;;;;;;;;;;;;;;;5018974;28;1284;-74
2024/01/09 14:54:37;;;;;;;;;;;;;;;;;;5018974;28;1188;-74
2024/01/09 14:57:02;;;;;;;;;;;;;;;;;;5036833;28;1931;-74
2024/01/09 14:59:28;;;;;;;;;;;;;;;;;;5037331;28;879;-75
2024/01/09 15:01:53;;;;;;;;;;;;;;;;;;5036338;28;884;-75
2024/01/09 15:04:19;;;;;;;;;;;;;;;;;;5036850;28;856;-75
2024/01/09 15:06:44;;;;;;;;;;;;;;;;;;5036722;28;888;-73
2024/01/09 15:09:10;;;;;;;;;;;;;;;;;;5036537;28;915;-73
2024/01/09 15:11:35;;;;;;;;;;;;;;;;;;5019593;28;1189;-78
2024/01/09 15:14:01;;;;;;;;;;;;;;;;;;5037022;28;922;-78
2024/01/09 15:16:26;;;;;;;;;;;;;;;;;;5037554;28;998;-78
2024/01/09 15:18:51;;;;;;;;;;;;;;;;;;5037003;28;1902;-79
2024/01/09 15:21:17;;;;;;;;;;;;;;;;;;5037169;28;1067;-78
2024/01/09 15:23:46;;;;;;;;;;;;;;;;;;5019314;28;1173;-78
2024/01/09 15:26:11;;;;;;;;;;;;;;;;;;5037234;28;880;-78
2024/01/09 15:28:37;;;;;;;;;;;;;;;;;;5019807;28;1347;-78
2024/01/09 15:31:05;;;;;;;;;;;;;;;;;;5036902;28;820;-78
2024/01/09 15:33:31;;;;;;;;;;;;;;;;;;5037123;28;943;-82
2024/01/09 15:35:56;;;;;;;;;;;;;;;;;;5037084;28;812;-77
2024/01/09 15:38:22;;;;;;;;;;;;;;;;;;5036633;28;1910;-77
2024/01/09 15:40:47;;;;;;;;;;;;;;;;;;5037374;28;907;-78
2024/01/09 15:43:13;;;;;;;;;;;;;;;;;;5036881;28;879;-78
2024/01/09 15:45:38;;;;;;;;;;;;;;;;;;5019404;28;1419;-78
2024/01/09 15:48:05;;;;;;;;;;;;;;;;;;5036699;28;912;-79
2024/01/09 15:50:30;;;;;;;;;;;;;;;;;;5018735;28;1269;-76
2024/01/09 15:52:55;;;;;;;;;;;;;;;;;;5036384;28;1011;-78
2024/01/09 15:55:20;;;;;;;;;;;;;;;;;;5018971;28;1367;-77
2024/01/09 15:57:46;;;;;;;;;;;;;;;;;;5018514;28;1902;-79
2024/01/09 16:00:13;;;;;;;;;;;;;;;;;;5018632;28;1370;-80
2024/01/09 16:02:38;;;;;;;;;;;;;;;;;;5018944;28;1256;-78
2024/01/09 16:05:06;;;;;;;;;;;;;;;;;;5018929;28;1325;-78
2024/01/09 16:07:31;;;;;;;;;;;;;;;;;;5036670;28;880;-79
2024/01/09 16:09:56;;;;;;;;;;;;;;;;;;5018518;28;1121;-76
2024/01/09 16:12:21;;;;;;;;;;;;;;;;;;5017865;28;1353;-76
2024/01/09 16:14:46;;;;;;;;;;;;;;;;;;5035973;28;820;-75
2024/01/09 16:17:17;;;;;;;;;;;;;;;;;;5019742;28;1906;-76
2024/01/09 16:19:43;;;;;;;;;;;;;;;;;;5048072;28;794;-77
2024/01/09 16:22:10;;;;;;;;;;;;;;;;;;5024411;28;1307;-76
2024/01/09 16:24:35;;;;;;;;;;;;;;;;;;5036006;28;947;-77
2024/01/09 16:27:00;;;;;;;;;;;;;;;;;;5031522;28;1151;-76
2024/01/09 16:29:25;;;;;;;;;;;;;;;;;;5042340;28;982;-76
2024/01/09 16:31:51;;;;;;;;;;;;;;;;;;5035554;28;868;-76
2024/01/09 16:34:16;;;;;;;;;;;;;;;;;;5018214;28;1236;-76
2024/01/09 16:36:41;;;;;;;;;;;;;;;;;;5034787;28;892;-75
2024/01/09 16:39:07;;;;;;;;;;;;;;;;;;5035681;28;1977;-75
2024/01/09 16:41:32;;;;;;;;;;;;;;;;;;5035527;28;801;-75
2024/01/09 16:43:57;;;;;;;;;;;;;;;;;;5036149;28;824;-75
2024/01/09 16:46:23;;;;;;;;;;;;;;;;;;5032307;28;1209;-72
2024/01/09 16:48:49;;;;;;;;;;;;;;;;;;5012782;28;1208;-73
2024/01/09 16:51:17;;;;;;;;;;;;;;;;;;5030773;28;1170;-73
2024/01/09 16:53:42;;;;;;;;;;;;;;;;;;5030830;28;1090;-73
2024/01/09 16:56:07;;;;;;;;;;;;;;;;;;5012274;28;1266;-73
2024/01/09 16:58:36;;;;;;;;;;;;;;;;;;5032237;28;1902;-75
2024/01/09 17:01:01;;;;;;;;;;;;;;;;;;5034873;28;872;-75